Metar z pełnej godziny Komunikat METAR ze strony awiacja.imgw.pl Metar G00 EPKK METAR EPKK 200400Z 24005KT 8000 SCT031 BKN043 03/02 Q1017 =